createdAt,value
2017-08-18T00:01:46.557Z,4.83
2017-08-18T00:04:14.094Z,4.53
2017-08-18T00:06:41.629Z,4.90
2017-08-18T00:09:09.194Z,4.80
2017-08-18T00:11:36.726Z,5.10
2017-08-18T00:14:04.263Z,5.17
2017-08-18T00:16:32.567Z,4.93
2017-08-18T00:19:00.101Z,4.47
2017-08-18T00:21:28.633Z,5.00
2017-08-18T00:23:56.158Z,4.90
2017-08-18T00:26:23.686Z,4.40
2017-08-18T00:28:51.216Z,4.77
2017-08-18T00:31:18.738Z,4.93
2017-08-18T00:33:46.263Z,5.63
2017-08-18T00:36:13.800Z,5.27
2017-08-18T00:38:41.332Z,5.07
2017-08-18T00:41:08.875Z,5.10
2017-08-18T00:43:36.411Z,4.67
2017-08-18T00:46:03.951Z,4.73
2017-08-18T00:48:31.487Z,4.90
2017-08-18T00:50:59.023Z,4.90
2017-08-18T00:53:26.591Z,4.40
2017-08-18T00:55:54.128Z,4.80
2017-08-18T00:58:21.669Z,4.90
2017-08-18T01:00:49.209Z,5.10
2017-08-18T01:03:17.521Z,4.90
2017-08-18T01:05:45.070Z,5.00
2017-08-18T01:08:12.608Z,4.63
2017-08-18T01:10:40.143Z,4.80
2017-08-18T01:13:07.670Z,5.07
2017-08-18T01:15:35.240Z,4.50
2017-08-18T01:18:02.782Z,4.93
2017-08-18T01:20:30.341Z,4.80
2017-08-18T01:22:57.886Z,5.03
2017-08-18T01:25:25.454Z,5.10
2017-08-18T01:27:52.992Z,4.20
2017-08-18T01:30:21.292Z,4.80
2017-08-18T01:32:48.822Z,4.43
2017-08-18T01:35:17.126Z,4.63
2017-08-18T01:37:44.720Z,4.47
2017-08-18T01:40:12.276Z,5.00
2017-08-18T01:42:43.427Z,5.13
2017-08-18T01:47:44.998Z,4.60
2017-08-18T01:50:12.535Z,4.70
2017-08-18T01:52:40.107Z,4.60
2017-08-18T01:55:07.631Z,4.50
2017-08-18T01:57:35.235Z,4.43
2017-08-18T02:00:02.762Z,4.40
2017-08-18T02:02:31.094Z,4.23
2017-08-18T02:04:58.744Z,4.17
2017-08-18T02:07:26.310Z,4.50
2017-08-18T02:09:53.970Z,4.60
2017-08-18T02:12:21.503Z,4.60
2017-08-18T02:14:49.063Z,3.90
2017-08-18T02:17:16.599Z,4.70
2017-08-18T02:19:44.155Z,4.40
2017-08-18T02:22:11.692Z,4.30
2017-08-18T02:24:39.335Z,4.33
2017-08-18T02:27:06.863Z,4.33
2017-08-18T02:29:34.444Z,3.53
2017-08-18T02:32:01.980Z,4.17
2017-08-18T02:34:29.532Z,3.90
2017-08-18T02:36:57.859Z,4.07
2017-08-18T02:39:25.423Z,4.17
2017-08-18T02:41:52.977Z,3.70
2017-08-18T02:44:20.512Z,4.40
2017-08-18T02:46:48.840Z,4.10
2017-08-18T02:49:16.380Z,4.50
2017-08-18T02:51:43.947Z,4.20
2017-08-18T02:54:11.540Z,4.43
2017-08-18T02:56:39.104Z,3.90
2017-08-18T02:59:06.639Z,3.67
2017-08-18T03:04:08.179Z,4.47
2017-08-18T03:06:36.599Z,3.87
2017-08-18T03:09:04.135Z,3.97
2017-08-18T03:11:31.672Z,3.90
2017-08-18T03:13:59.216Z,4.40
2017-08-18T03:16:26.756Z,4.00
2017-08-18T03:18:54.295Z,4.17
2017-08-18T03:21:21.831Z,4.20
2017-08-18T03:23:49.368Z,5.57
2017-08-18T03:26:16.903Z,4.67
2017-08-18T03:28:44.435Z,4.60
2017-08-18T03:31:12.007Z,5.97
2017-08-18T03:33:39.570Z,6.17
2017-08-18T03:36:07.116Z,6.23
2017-08-18T03:38:34.657Z,5.87
2017-08-18T03:41:02.208Z,4.70
2017-08-18T03:43:30.506Z,4.80
2017-08-18T03:45:58.048Z,4.87
2017-08-18T03:48:26.376Z,4.63
2017-08-18T03:50:53.906Z,4.00
2017-08-18T03:53:21.464Z,4.17
2017-08-18T03:55:48.994Z,4.87
2017-08-18T03:58:17.290Z,4.20
2017-08-18T04:00:44.823Z,4.40
2017-08-18T04:03:12.358Z,4.20
2017-08-18T04:05:39.890Z,4.50
2017-08-18T04:08:07.419Z,3.93
2017-08-18T04:10:34.951Z,4.13
2017-08-18T04:13:02.479Z,4.47
2017-08-18T04:15:30.015Z,4.50
2017-08-18T04:17:57.547Z,4.10
2017-08-18T04:20:25.872Z,4.60
2017-08-18T04:22:53.407Z,5.00
2017-08-18T04:25:20.984Z,4.20
2017-08-18T04:27:48.511Z,4.07
2017-08-18T04:30:16.816Z,4.63
2017-08-18T04:32:44.348Z,3.70
2017-08-18T04:35:12.655Z,3.90
2017-08-18T04:37:40.186Z,4.50
2017-08-18T04:40:07.717Z,4.07
2017-08-18T04:42:37.007Z,4.27
2017-08-18T04:45:04.543Z,4.33
2017-08-18T04:47:32.087Z,3.93
2017-08-18T04:49:59.622Z,4.33
2017-08-18T04:52:27.160Z,4.77
2017-08-18T04:54:54.694Z,4.40
2017-08-18T04:57:22.283Z,3.57
2017-08-18T04:59:49.815Z,4.53
2017-08-18T05:02:17.347Z,3.90
2017-08-18T05:04:44.881Z,4.30
2017-08-18T05:07:12.411Z,3.87
2017-08-18T05:09:39.935Z,4.60
2017-08-18T05:12:07.478Z,3.80
2017-08-18T05:14:35.007Z,4.13
2017-08-18T05:17:02.545Z,3.90
2017-08-18T05:19:30.107Z,4.03
2017-08-18T05:21:57.643Z,3.70
2017-08-18T05:24:25.180Z,4.40
2017-08-18T05:26:53.484Z,3.67
2017-08-18T05:29:21.023Z,3.83
2017-08-18T05:31:49.329Z,3.57
2017-08-18T05:34:16.896Z,4.27
2017-08-18T05:36:44.426Z,4.60
2017-08-18T05:39:12.757Z,4.40
2017-08-18T05:41:40.288Z,4.10
2017-08-18T05:44:07.821Z,4.10
2017-08-18T05:46:35.407Z,3.80
2017-08-18T05:49:02.972Z,3.50
2017-08-18T05:51:30.495Z,4.10
2017-08-18T05:53:58.027Z,3.77
2017-08-18T05:56:25.566Z,4.27
2017-08-18T05:58:53.095Z,3.87
2017-08-18T06:01:20.656Z,4.40
2017-08-18T06:03:48.182Z,3.70
2017-08-18T06:06:15.762Z,4.30
2017-08-18T06:08:43.307Z,4.00
2017-08-18T06:11:10.840Z,4.10
2017-08-18T06:13:38.478Z,4.10
2017-08-18T06:16:06.051Z,4.03
2017-08-18T06:18:33.590Z,4.23
2017-08-18T06:21:01.123Z,4.00
2017-08-18T06:23:28.724Z,3.80
2017-08-18T06:25:56.287Z,4.17
2017-08-18T06:28:23.943Z,4.27
2017-08-18T06:30:51.470Z,4.23
2017-08-18T06:33:19.024Z,3.70
2017-08-18T06:35:47.343Z,4.40
2017-08-18T06:38:15.003Z,3.70
2017-08-18T06:40:49.079Z,4.30
2017-08-18T06:43:17.499Z,4.50
2017-08-18T06:45:45.130Z,4.40
2017-08-18T06:48:12.663Z,4.60
2017-08-18T06:50:40.196Z,4.53
2017-08-18T06:53:07.731Z,5.03
2017-08-18T06:55:35.278Z,4.87
2017-08-18T06:58:02.813Z,4.90
2017-08-18T07:00:30.355Z,4.57
2017-08-18T07:02:58.650Z,4.90
2017-08-18T07:05:26.971Z,4.67
2017-08-18T07:07:54.532Z,5.30
2017-08-18T07:10:22.112Z,4.50
2017-08-18T07:12:49.650Z,4.73
2017-08-18T07:15:17.307Z,4.37
2017-08-18T07:17:44.838Z,5.30
2017-08-18T07:20:12.371Z,4.60
2017-08-18T07:22:39.907Z,5.20
2017-08-18T07:25:07.441Z,5.73
2017-08-18T07:27:34.974Z,5.00
2017-08-18T07:30:03.271Z,5.27
2017-08-18T07:32:30.848Z,5.37
2017-08-18T07:34:58.383Z,5.17
2017-08-18T07:37:25.927Z,6.93
2017-08-18T07:39:54.251Z,5.20
2017-08-18T07:42:21.803Z,5.10
2017-08-18T07:44:49.366Z,5.17
2017-08-18T07:47:16.923Z,5.00
2017-08-18T07:49:44.467Z,6.80
2017-08-18T07:52:12.032Z,4.33
2017-08-18T07:54:39.598Z,4.77
2017-08-18T07:57:07.171Z,4.90
2017-08-18T07:59:34.708Z,3.80
2017-08-18T08:02:02.270Z,4.40
2017-08-18T08:04:29.811Z,3.50
2017-08-18T08:06:57.343Z,5.10
2017-08-18T08:09:24.883Z,4.07
2017-08-18T08:11:52.414Z,4.47
2017-08-18T08:14:19.959Z,4.03
2017-08-18T08:16:47.486Z,4.37
2017-08-18T08:19:15.066Z,4.40
2017-08-18T08:21:42.599Z,4.07
2017-08-18T08:24:10.151Z,3.97
2017-08-18T08:26:37.680Z,3.67
2017-08-18T08:29:05.239Z,4.07
2017-08-18T08:31:32.770Z,3.23
2017-08-18T08:34:00.331Z,3.93
2017-08-18T08:36:27.867Z,3.77
2017-08-18T08:38:55.486Z,3.40
2017-08-18T08:41:23.051Z,2.90
2017-08-18T08:43:50.607Z,3.20
2017-08-18T08:46:18.159Z,3.13
2017-08-18T08:48:45.699Z,3.27
2017-08-18T08:51:13.298Z,3.10
2017-08-18T08:53:40.851Z,3.10
2017-08-18T08:56:08.527Z,3.10
2017-08-18T08:58:36.071Z,3.23
2017-08-18T09:01:03.631Z,3.07
2017-08-18T09:03:31.190Z,3.07
2017-08-18T09:05:58.757Z,3.10
2017-08-18T09:08:26.326Z,2.90
2017-08-18T09:10:53.859Z,2.80
2017-08-18T09:13:21.407Z,2.60
2017-08-18T09:15:48.939Z,3.27
2017-08-18T09:18:16.599Z,2.90
2017-08-18T09:20:44.132Z,3.30
2017-08-18T09:23:11.686Z,2.93
2017-08-18T09:25:39.221Z,3.20
2017-08-18T09:28:06.746Z,2.50
2017-08-18T09:30:34.366Z,2.63
2017-08-18T09:33:01.887Z,2.90
2017-08-18T09:35:29.423Z,3.20
2017-08-18T09:37:56.958Z,2.90
2017-08-18T09:40:24.485Z,2.80
2017-08-18T09:42:52.010Z,2.70
2017-08-18T09:45:19.571Z,2.90
2017-08-18T09:47:47.131Z,3.00
2017-08-18T10:03:47.459Z,3.23
2017-08-18T10:08:51.707Z,3.90
2017-08-18T10:11:19.238Z,3.10
2017-08-18T10:13:46.771Z,3.10
2017-08-18T10:16:14.302Z,2.97
2017-08-18T10:18:41.839Z,2.60
2017-08-18T10:21:09.383Z,2.70
2017-08-18T10:23:37.680Z,2.57
2017-08-18T10:26:05.210Z,2.70
2017-08-18T10:28:33.512Z,2.57
2017-08-18T10:31:01.071Z,2.60
2017-08-18T10:33:28.611Z,2.93
2017-08-18T10:35:56.168Z,2.60
2017-08-18T10:38:24.093Z,2.57
2017-08-18T10:40:51.647Z,2.90
2017-08-18T10:43:19.178Z,2.70
2017-08-18T10:45:46.722Z,3.10
2017-08-18T10:48:15.024Z,2.50
2017-08-18T10:50:42.554Z,2.13
2017-08-18T10:53:10.083Z,2.60
2017-08-18T10:55:37.612Z,2.43
2017-08-18T10:58:05.160Z,2.87
2017-08-18T11:00:33.455Z,2.40
2017-08-18T11:03:00.990Z,2.63
2017-08-18T11:05:29.286Z,2.27
2017-08-18T11:07:56.846Z,2.60
2017-08-18T11:10:24.379Z,2.40
2017-08-18T11:12:52.702Z,2.50
2017-08-18T11:15:20.227Z,2.17
2017-08-18T11:17:48.547Z,2.83
2017-08-18T11:20:16.117Z,2.77
2017-08-18T11:22:43.674Z,2.53
2017-08-18T11:25:11.205Z,2.70
2017-08-18T11:27:39.055Z,2.43
2017-08-18T11:30:07.355Z,2.87
2017-08-18T11:32:34.886Z,2.93
2017-08-18T11:35:03.200Z,3.10
2017-08-18T11:37:30.784Z,2.73
2017-08-18T11:39:58.327Z,2.67
2017-08-18T11:42:25.912Z,3.20
2017-08-18T11:44:53.471Z,2.93
2017-08-18T11:47:21.033Z,3.00
2017-08-18T11:49:48.592Z,2.70
2017-08-18T11:52:16.150Z,2.80
2017-08-18T11:54:43.706Z,3.03
2017-08-18T11:57:11.266Z,2.80
2017-08-18T11:59:38.927Z,2.80
2017-08-18T12:02:06.466Z,2.93
2017-08-18T12:04:34.042Z,2.60
2017-08-18T12:07:01.614Z,2.70
2017-08-18T12:09:29.179Z,2.80
2017-08-18T12:11:56.720Z,2.37
2017-08-18T12:14:24.252Z,2.97
2017-08-18T12:16:52.583Z,2.70
2017-08-18T12:19:20.117Z,2.90
2017-08-18T12:21:47.692Z,3.20
2017-08-18T12:24:15.226Z,3.33
2017-08-18T12:26:42.814Z,3.87
2017-08-18T12:29:10.356Z,3.57
2017-08-18T12:31:37.907Z,3.30
2017-08-18T12:34:05.443Z,3.33
2017-08-18T12:36:33.009Z,3.30
2017-08-18T12:39:00.546Z,3.40
2017-08-18T12:41:28.871Z,3.00
2017-08-18T12:43:56.406Z,3.20
2017-08-18T12:46:23.983Z,3.10
2017-08-18T12:48:51.515Z,3.37
2017-08-18T12:51:19.047Z,3.33
2017-08-18T12:53:46.612Z,3.30
2017-08-18T12:56:14.147Z,2.60
2017-08-18T12:58:41.682Z,2.87
2017-08-18T13:01:09.243Z,3.10
2017-08-18T13:03:36.770Z,2.33
2017-08-18T13:06:04.299Z,2.93
2017-08-18T13:08:31.831Z,2.57
2017-08-18T13:10:59.368Z,2.80
2017-08-18T13:13:26.895Z,2.73
2017-08-18T13:15:54.427Z,2.50
2017-08-18T13:18:21.960Z,2.53
2017-08-18T13:20:49.494Z,2.60
2017-08-18T13:23:17.071Z,2.73
2017-08-18T13:25:44.610Z,2.77
2017-08-18T13:28:12.906Z,2.83
2017-08-18T13:30:40.442Z,2.80
2017-08-18T13:33:07.980Z,2.40
2017-08-18T13:35:35.511Z,2.40
2017-08-18T13:38:03.043Z,2.90
2017-08-18T13:40:30.572Z,2.80
2017-08-18T13:42:58.107Z,3.00
2017-08-18T13:45:25.647Z,3.23
2017-08-18T13:47:53.174Z,2.20
2017-08-18T13:50:21.476Z,2.30
2017-08-18T13:52:49.052Z,2.80
2017-08-18T13:55:16.611Z,2.77
2017-08-18T13:57:44.151Z,2.60
2017-08-18T14:00:11.725Z,3.00
2017-08-18T14:02:39.267Z,2.67
2017-08-18T14:05:06.803Z,2.73
2017-08-18T14:07:35.103Z,2.77
2017-08-18T14:10:02.636Z,3.00
2017-08-18T14:12:30.944Z,3.10
2017-08-18T14:14:58.479Z,3.00
2017-08-18T14:17:26.778Z,2.70
2017-08-18T14:19:54.311Z,3.10
2017-08-18T14:22:21.847Z,3.23
2017-08-18T14:24:49.387Z,2.80
2017-08-18T14:27:22.747Z,3.40
2017-08-18T14:29:51.047Z,3.10
2017-08-18T14:32:18.583Z,2.73
2017-08-18T14:34:46.124Z,3.23
2017-08-18T14:37:13.699Z,3.40
2017-08-18T14:39:41.247Z,2.70
2017-08-18T14:42:08.798Z,2.80
2017-08-18T14:44:36.339Z,3.07
2017-08-18T14:47:03.891Z,3.10
2017-08-18T14:49:31.417Z,3.27
2017-08-18T14:51:58.943Z,2.70
2017-08-18T14:54:26.468Z,3.20
2017-08-18T14:56:54.346Z,3.60
2017-08-18T14:59:21.885Z,3.13
2017-08-18T15:01:49.415Z,2.80
2017-08-18T15:04:16.967Z,3.00
2017-08-18T15:06:44.487Z,3.30
2017-08-18T15:09:12.043Z,3.20
2017-08-18T15:11:39.588Z,2.90
2017-08-18T15:14:07.375Z,3.10
2017-08-18T15:16:34.906Z,3.27
2017-08-18T15:19:02.451Z,2.90
2017-08-18T15:21:29.992Z,3.20
2017-08-18T15:23:57.523Z,2.80
2017-08-18T15:26:25.055Z,3.00
2017-08-18T15:28:52.604Z,2.73
2017-08-18T15:31:32.467Z,3.13
2017-08-18T15:34:00.008Z,2.80
2017-08-18T15:36:27.571Z,3.53
2017-08-18T15:38:55.103Z,3.30
2017-08-18T15:41:22.698Z,3.47
2017-08-18T15:43:50.236Z,3.00
2017-08-18T15:46:17.815Z,2.90
2017-08-18T15:48:45.360Z,3.60
2017-08-18T15:51:12.891Z,3.70
2017-08-18T15:53:41.191Z,3.87
2017-08-18T15:56:08.782Z,3.47
2017-08-18T15:58:36.318Z,3.77
2017-08-18T16:01:03.860Z,3.30
2017-08-18T16:03:32.176Z,3.27
2017-08-18T16:05:59.711Z,3.30
2017-08-18T16:08:27.248Z,3.60
2017-08-18T16:10:55.559Z,3.30
2017-08-18T16:13:23.090Z,3.30
2017-08-18T16:15:51.391Z,3.47
2017-08-18T16:18:18.960Z,3.47
2017-08-18T16:20:46.512Z,3.53
2017-08-18T16:23:14.075Z,3.47
2017-08-18T16:25:41.607Z,3.70
2017-08-18T16:28:09.960Z,3.20
2017-08-18T16:30:37.498Z,3.40
2017-08-18T16:33:05.030Z,3.33
2017-08-18T16:35:32.562Z,3.30
2017-08-18T16:38:00.096Z,3.80
2017-08-18T16:40:28.427Z,3.43
2017-08-18T16:42:55.956Z,3.43
2017-08-18T16:45:23.559Z,3.93
2017-08-18T16:47:51.095Z,4.47
2017-08-18T16:50:18.656Z,3.80
2017-08-18T16:52:46.231Z,4.40
2017-08-18T16:55:13.869Z,5.70
2017-08-18T16:57:41.451Z,11.43
2017-08-18T17:00:09.006Z,4.57
2017-08-18T17:02:36.541Z,7.23
2017-08-18T17:05:04.146Z,5.07
2017-08-18T17:07:31.687Z,3.90
2017-08-18T17:09:59.243Z,5.43
2017-08-18T17:12:26.781Z,4.13
2017-08-18T17:14:54.385Z,4.17
2017-08-18T17:17:21.943Z,4.77
2017-08-18T17:19:49.500Z,4.20
2017-08-18T17:22:17.031Z,4.63
2017-08-18T17:24:44.622Z,4.50
2017-08-18T17:27:12.151Z,4.83
2017-08-18T17:29:39.702Z,4.40
2017-08-18T17:32:07.303Z,4.50
2017-08-18T17:34:34.863Z,5.10
2017-08-18T17:37:02.431Z,4.30
2017-08-18T17:39:29.996Z,5.20
2017-08-18T17:41:57.653Z,4.93
2017-08-18T17:44:25.183Z,4.83
2017-08-18T17:46:52.753Z,4.20
2017-08-18T17:49:20.287Z,4.60
2017-08-18T17:51:48.609Z,4.67
2017-08-18T17:54:16.174Z,4.50
2017-08-18T17:56:43.831Z,4.77
2017-08-18T17:59:11.391Z,4.07
2017-08-18T18:01:38.951Z,4.10
2017-08-18T18:04:06.487Z,4.87
2017-08-18T18:06:34.084Z,4.20
2017-08-18T18:09:01.631Z,4.70
2017-08-18T18:11:29.155Z,4.40
2017-08-18T18:13:56.706Z,4.80
2017-08-18T18:16:25.014Z,4.40
2017-08-18T18:18:52.603Z,4.60
2017-08-18T18:21:20.155Z,4.60
2017-08-18T18:23:47.712Z,6.17
2017-08-18T18:26:15.247Z,5.83
2017-08-18T18:28:42.814Z,5.70
2017-08-18T18:31:10.346Z,4.43
2017-08-18T18:33:37.892Z,4.70
2017-08-18T18:36:05.424Z,4.70
2017-08-18T18:38:32.954Z,4.90
2017-08-18T18:41:01.281Z,5.60
2017-08-18T18:43:28.818Z,4.77
2017-08-18T18:45:56.352Z,4.77
2017-08-18T18:48:23.974Z,5.23
2017-08-18T18:50:51.507Z,4.80
2017-08-18T18:53:19.047Z,5.43
2017-08-18T18:55:47.346Z,4.57
2017-08-18T19:00:48.818Z,5.53
2017-08-18T19:03:16.355Z,5.00
2017-08-18T19:05:44.695Z,5.63
2017-08-18T19:08:12.230Z,5.60
2017-08-18T19:10:39.766Z,5.33
2017-08-18T19:13:08.063Z,5.27
2017-08-18T19:15:35.661Z,5.20
2017-08-18T19:18:03.227Z,6.00
2017-08-18T19:20:30.758Z,5.80
2017-08-18T19:22:58.291Z,5.87
2017-08-18T19:25:25.894Z,5.20
2017-08-18T19:27:53.426Z,6.63
2017-08-18T19:30:20.983Z,5.30
2017-08-18T19:32:48.535Z,5.80
2017-08-18T19:35:16.067Z,4.57
2017-08-18T19:37:43.639Z,5.23
2017-08-18T19:40:11.935Z,5.50
2017-08-18T19:42:39.467Z,4.90
2017-08-18T19:45:06.995Z,5.57
2017-08-18T19:47:34.536Z,5.17
2017-08-18T19:50:02.080Z,5.20
2017-08-18T19:52:29.615Z,5.60
2017-08-18T19:54:57.940Z,5.67
2017-08-18T19:57:25.476Z,5.17
2017-08-18T19:59:53.034Z,5.27
2017-08-18T20:02:20.575Z,5.30
2017-08-18T20:04:48.128Z,5.10
2017-08-18T20:07:15.671Z,5.40
2017-08-18T20:09:43.201Z,6.03
2017-08-18T20:12:10.738Z,4.80
2017-08-18T20:14:38.287Z,5.30
2017-08-18T20:17:06.599Z,5.60
2017-08-18T20:19:34.159Z,4.60
2017-08-18T20:22:01.732Z,4.53
2017-08-18T20:24:29.384Z,4.53
2017-08-18T20:26:56.932Z,4.73
2017-08-18T20:29:24.497Z,4.23
2017-08-18T20:31:52.039Z,3.87
2017-08-18T20:34:19.575Z,3.50
2017-08-18T20:36:47.876Z,3.70
2017-08-18T20:39:15.411Z,3.70
2017-08-18T20:41:42.947Z,3.50
2017-08-18T20:44:10.474Z,2.93
2017-08-18T20:46:38.055Z,3.03
2017-08-18T20:49:05.587Z,2.90
2017-08-18T20:51:34.012Z,2.93
2017-08-18T20:54:01.574Z,2.67
2017-08-18T20:56:29.148Z,2.90
2017-08-18T20:58:56.679Z,3.73
2017-08-18T21:01:24.251Z,2.90
2017-08-18T21:03:51.787Z,3.00
2017-08-18T21:06:19.383Z,5.40
2017-08-18T21:08:46.918Z,4.40
2017-08-18T21:11:14.461Z,2.93
2017-08-18T21:13:42.787Z,3.73
2017-08-18T21:16:10.315Z,2.77
2017-08-18T21:18:37.919Z,2.87
2017-08-18T21:21:05.654Z,3.10
2017-08-18T21:23:33.216Z,3.13
2017-08-18T21:26:00.753Z,3.00
2017-08-18T21:28:28.326Z,3.17
2017-08-18T21:30:55.907Z,3.90
2017-08-18T21:33:23.566Z,3.00
2017-08-18T21:35:51.131Z,2.93
2017-08-18T21:38:19.443Z,3.97
2017-08-18T21:40:46.988Z,3.07
2017-08-18T21:43:14.539Z,3.10
2017-08-18T21:45:42.083Z,2.87
2017-08-18T21:48:10.400Z,3.43
2017-08-18T21:50:37.947Z,3.20
2017-08-18T21:53:05.491Z,3.50
2017-08-18T21:55:33.803Z,3.50
2017-08-18T21:58:01.352Z,3.50
2017-08-18T22:00:28.923Z,3.90
2017-08-18T22:02:56.471Z,3.80
2017-08-18T22:05:24.967Z,4.40
2017-08-18T22:07:52.551Z,3.40
2017-08-18T22:10:20.207Z,3.47
2017-08-18T22:15:21.831Z,3.63
2017-08-18T22:17:49.392Z,3.77
2017-08-18T22:20:17.723Z,3.97
2017-08-18T22:22:45.272Z,4.20
2017-08-18T22:25:12.811Z,5.00
2017-08-18T22:27:40.351Z,3.97
2017-08-18T22:30:08.667Z,4.37
2017-08-18T22:32:36.234Z,4.23
2017-08-18T22:35:03.774Z,4.70
2017-08-18T22:37:31.342Z,4.50
2017-08-18T22:39:59.082Z,5.23
2017-08-18T22:42:27.513Z,6.77
2017-08-18T22:44:55.095Z,7.77
2017-08-18T22:47:22.795Z,7.60
2017-08-18T22:49:50.346Z,7.83
2017-08-18T22:52:17.900Z,8.10
2017-08-18T22:54:46.219Z,9.70
2017-08-18T22:57:13.774Z,8.80
2017-08-18T22:59:41.347Z,8.83
2017-08-18T23:02:08.891Z,8.70
2017-08-18T23:04:36.482Z,9.47
2017-08-18T23:07:05.015Z,6.37
2017-08-18T23:09:32.586Z,6.23
2017-08-18T23:12:00.139Z,7.53
2017-08-18T23:14:27.825Z,6.10
2017-08-18T23:16:55.492Z,5.67
2017-08-18T23:19:23.299Z,6.30
2017-08-18T23:21:51.236Z,5.77
2017-08-18T23:24:19.796Z,5.80
2017-08-18T23:26:47.720Z,5.43
2017-08-18T23:29:15.482Z,5.97
2017-08-18T23:31:43.144Z,5.97
2017-08-18T23:34:10.887Z,7.33
2017-08-18T23:36:39.266Z,8.17
2017-08-18T23:39:07.769Z,5.53
2017-08-18T23:41:35.492Z,5.30
2017-08-18T23:44:03.107Z,5.10
2017-08-18T23:46:31.011Z,5.07
2017-08-18T23:48:58.666Z,5.33
2017-08-18T23:51:26.384Z,4.73
2017-08-18T23:53:54.026Z,4.33
2017-08-18T23:56:22.753Z,4.63
2017-08-18T23:58:50.580Z,4.97
